Terminal Aerodrome Forecast
Issued by NWS Midland/Odessa, TX

Home | Current Version | Previous Version | Text Only | Print | Product List | Glossary On
Versions: 1 2 3 4 5 6 7 8 9 10 11 12 13 14 15 16 17 18 19 20 21 22
000
FTUS44 KMAF 272335
TAFMAF
TAF
KMAF 272335Z 2800/2824 22022G32KT P6SM FEW250
     FM280300 21014G22KT P6SM FEW250
     FM280900 24011KT P6SM FEW250
     FM281800 24018G28KT P6SM SCT250=

USA.gov is the U.S. government's official web portal to all federal, state and local government web resources and services.